Fillmore, New York
Current Conditions -  °F | °C
As of 8:15 AM on Thursday 30 Oct 2014 (Local Time) from KOLE Reporting Station
Overcast Overcast  
Wind Chill: 36°   Ceiling: 900
Heat Index: 36°   Visibility: 10mi
Dew Point: 36°   Wind: 0mph
Humidity: 100%   Direction: NA
Pressure: 30.02"   Gusts: NA
Location:  42.47°N, 78.11°W
Report Text: KOLE 301215Z AUTO 00000KT 10SM BKN009 BKN014 OVC025 02/02 A3002 RMK AO2
Loading
Personal Weather Stations






























Interactive Weather Map
Tropical Storm Tracking
New forecast layout! Learn more

10-Day Weather Forecast

Advertisements
Track Severe Weather on mobile